Time;durP1;ratioP1;P1;durP2;ratioP2;P2;SDS_P1;SDS_P2;PMS_P1;PMS_P2;Temp;Humidity;BMP_temperature;BMP_pressure;BME280_temperature;BME280_humidity;BME280_pressure;Samples;Min_cycle;Max_cycle;Signal;HPM_P1;HPM_P2
2021/05/02 00:01:07;;;;;;;10.02;3.58;;;;;;;20.25;53.19;94230.91;2984970;39;20044;-82
2021/05/02 00:03:10;;;;;;;11.02;3.05;;;;;;;20.27;52.85;94223.53;2977229;39;20056;-81
2021/05/02 00:05:14;;;;;;;7.60;2.47;;;;;;;20.23;53.05;94233.78;2983053;39;20467;-80
2021/05/02 00:07:15;;;;;;;;;;;;;;;20.21;52.91;94222.56;2977877;39;20060;-81
2021/05/02 00:09:17;;;;;;;8.18;2.83;;;;;;;19.93;53.67;94209.16;2977622;39;19932;-82
2021/05/02 00:11:18;;;;;;;10.45;3.30;;;;;;;19.87;53.79;94205.53;2984007;39;20083;-81
2021/05/02 00:13:20;;;;;;;6.82;2.80;;;;;;;19.92;53.54;94196.88;2982768;39;20079;-70
2021/05/02 00:15:22;;;;;;;10.13;2.75;;;;;;;19.89;53.86;94192.84;2978163;39;20263;-81
2021/05/02 00:17:25;;;;;;;9.32;3.45;;;;;;;19.93;53.46;94190.53;2980804;39;20079;-83
2021/05/02 00:19:26;;;;;;;7.73;2.90;;;;;;;19.96;53.51;94193.56;2980757;39;20136;-80
2021/05/02 00:21:28;;;;;;;6.15;2.72;;;;;;;20.00;53.44;94191.22;2979517;39;20685;-81
2021/05/02 00:23:33;;;;;;;9.68;2.53;;;;;;;20.02;53.87;94197.94;2973390;39;20084;-87
2021/05/02 00:25:35;;;;;;;9.30;2.95;;;;;;;19.92;53.73;94189.72;2978389;39;20084;-82
2021/05/02 00:27:36;;;;;;;10.63;2.80;;;;;;;19.68;54.46;94186.19;2977604;39;20072;-81
2021/05/02 00:29:42;;;;;;;15.35;4.47;;;;;;;19.64;54.29;94190.34;2978869;39;20044;-82
2021/05/02 00:31:45;;;;;;;6.60;2.15;;;;;;;19.70;54.20;94193.94;2980183;39;20094;-83
2021/05/02 00:33:46;;;;;;;7.57;2.63;;;;;;;19.77;54.17;94189.38;2977901;39;20115;-80
2021/05/02 00:35:49;;;;;;;7.75;2.72;;;;;;;19.74;54.42;94173.84;2982537;39;20422;-82
2021/05/02 00:37:51;;;;;;;7.65;2.47;;;;;;;19.75;54.49;94188.78;2977697;39;20802;-85
2021/05/02 00:39:53;;;;;;;10.25;2.90;;;;;;;19.80;54.06;94186.25;2982318;39;20667;-82
2021/05/02 00:41:58;;;;;;;9.70;3.38;;;;;;;19.84;54.44;94184.75;2982857;39;20327;-82
2021/05/02 00:44:21;;;;;;;8.52;2.85;;;;;;;19.83;54.40;94180.44;2977156;39;20373;-82
2021/05/02 00:46:53;;;;;;;9.95;2.78;;;;;;;19.65;55.50;94149.44;2975185;39;20388;-82
2021/05/02 00:49:15;;;;;;;8.30;2.47;;;;;;;19.58;55.29;94167.34;2975952;39;20467;-81
2021/05/02 00:51:18;;;;;;;7.70;2.88;;;;;;;19.52;56.14;94152.31;2976731;39;20047;-83
2021/05/02 00:53:34;;;;;;;8.00;3.05;;;;;;;19.50;55.89;94149.88;2968066;40;20045;-81
2021/05/02 00:55:44;;;;;;;9.43;3.55;;;;;;;19.54;55.69;94159.00;2973151;39;20122;-81
2021/05/02 00:58:02;;;;;;;10.30;3.08;;;;;;;19.59;55.33;94145.03;2991747;39;20063;-82
2021/05/02 01:00:05;;;;;;;9.18;3.00;;;;;;;19.62;54.96;94145.41;2969653;40;20068;-82
2021/05/02 01:02:07;;;;;;;11.98;3.70;;;;;;;19.64;55.18;94139.88;2974676;39;20056;-71
2021/05/02 01:04:10;;;;;;;8.90;4.00;;;;;;;19.60;55.57;94130.72;2971755;39;20079;-70
2021/05/02 01:06:14;;;;;;;7.13;2.90;;;;;;;19.59;55.35;94145.03;2972690;39;20095;-70
2021/05/02 01:08:16;;;;;;;7.40;2.80;;;;;;;19.51;55.75;94132.06;2970133;39;20054;-70
2021/05/02 01:10:18;;;;;;;12.05;3.17;;;;;;;19.12;56.75;94124.50;2975782;39;20260;-70
2021/05/02 01:12:20;;;;;;;14.70;3.88;;;;;;;19.12;56.46;94152.88;2986171;39;20132;-71
2021/05/02 01:14:23;;;;;;;8.68;2.70;;;;;;;19.11;56.79;94130.03;2970620;39;20474;-71
2021/05/02 01:16:27;;;;;;;7.97;2.80;;;;;;;19.11;56.35;94149.41;2971400;39;20380;-71
2021/05/02 01:18:29;;;;;;;9.27;2.90;;;;;;;19.11;56.46;94132.69;2972357;39;20132;-71
2021/05/02 01:20:32;;;;;;;6.65;2.72;;;;;;;19.11;56.52;94128.16;2975451;39;20051;-70
2021/05/02 01:22:37;;;;;;;13.68;3.47;;;;;;;18.93;56.57;94113.09;2972327;39;20479;-70
2021/05/02 01:24:39;;;;;;;7.55;3.58;;;;;;;18.87;56.65;94126.47;2971199;39;20320;-70
2021/05/02 01:26:43;;;;;;;7.78;2.75;;;;;;;18.87;57.11;94134.44;2975541;39;20120;-72
2021/05/02 01:28:45;;;;;;;10.13;3.58;;;;;;;18.87;56.96;94129.13;2975996;39;20111;-70
2021/05/02 01:30:47;;;;;;;11.65;3.63;;;;;;;18.74;57.67;94133.53;2970552;39;20060;-72
2021/05/02 01:32:49;;;;;;;9.23;3.35;;;;;;;18.76;57.79;94120.84;2968381;39;20076;-71
2021/05/02 01:34:51;;;;;;;9.15;3.30;;;;;;;18.81;57.97;94126.31;2972777;39;20109;-84
2021/05/02 01:36:53;;;;;;;12.00;4.07;;;;;;;18.92;57.73;94123.94;2968012;40;20420;-70
2021/05/02 01:38:56;;;;;;;13.15;3.80;;;;;;;18.79;57.98;94090.44;2974483;39;20073;-70
2021/05/02 01:40:59;;;;;;;7.77;2.57;;;;;;;18.86;57.76;94095.63;2974227;39;20060;-70
2021/05/02 01:43:01;;;;;;;13.98;3.15;;;;;;;18.93;57.84;94102.50;2975957;39;20060;-70
2021/05/02 01:45:04;;;;;;;12.60;3.50;;;;;;;18.89;58.20;94088.03;2970918;39;20052;-71
2021/05/02 01:47:09;;;;;;;9.43;3.10;;;;;;;18.83;58.29;94099.56;2975070;39;20048;-70
2021/05/02 01:49:15;;;;;;;7.57;3.22;;;;;;;18.89;58.17;94100.50;2971633;39;20067;-70
2021/05/02 01:51:19;;;;;;;9.07;3.42;;;;;;;18.88;58.32;94122.75;2967892;39;20092;-70
2021/05/02 01:53:21;;;;;;;11.02;3.00;;;;;;;18.95;58.18;94129.63;2984942;39;20131;-71
2021/05/02 01:55:22;;;;;;;13.88;3.25;;;;;;;19.04;57.56;94116.84;2970412;39;20077;-69
2021/05/02 01:57:28;;;;;;;10.05;2.85;;;;;;;19.08;57.83;94115.34;2967686;39;20064;-71
2021/05/02 01:59:30;;;;;;;15.18;3.95;;;;;;;18.41;59.75;94129.44;2974359;39;20148;-70
2021/05/02 02:01:32;;;;;;;10.07;3.03;;;;;;;18.49;59.47;94119.53;2972041;39;20149;-71
2021/05/02 02:03:34;;;;;;;9.23;2.90;;;;;;;18.58;59.23;94129.66;2976164;39;20124;-70
2021/05/02 02:05:37;;;;;;;9.52;3.47;;;;;;;18.62;58.86;94138.75;2968746;39;20071;-70
2021/05/02 02:07:39;;;;;;;9.75;3.70;;;;;;;18.53;59.23;94123.38;2967200;40;20125;-71
2021/05/02 02:09:41;;;;;;;10.65;3.92;;;;;;;18.55;58.74;94121.31;2967946;39;20108;-70
2021/05/02 02:11:42;;;;;;;9.60;3.30;;;;;;;18.45;59.52;94128.97;2973743;39;20067;-83
2021/05/02 02:13:47;;;;;;;9.80;2.97;;;;;;;18.36;59.64;94126.59;2965406;40;20055;-81
2021/05/02 02:15:49;;;;;;;10.50;3.80;;;;;;;18.50;59.31;94129.09;2997423;39;20053;-84
2021/05/02 02:17:50;;;;;;;10.45;3.22;;;;;;;18.35;59.96;94125.00;2972606;39;20060;-82
2021/05/02 02:19:53;;;;;;;13.50;3.08;;;;;;;18.33;59.59;94126.25;2990972;39;20102;-80
2021/05/02 02:21:55;;;;;;;10.15;3.33;;;;;;;18.24;59.94;94128.41;2970267;39;20052;-82
2021/05/02 02:23:59;;;;;;;6.20;3.08;;;;;;;18.16;60.44;94126.03;2984274;39;20412;-81
2021/05/02 02:26:19;;;;;;;9.32;2.85;;;;;;;18.17;60.39;94122.34;2973878;39;20075;-84
2021/05/02 02:28:21;;;;;;;10.50;3.10;;;;;;;18.30;60.23;94121.38;2970855;40;20081;-81
2021/05/02 02:30:26;;;;;;;6.57;2.88;;;;;;;18.45;59.68;94105.09;2979621;39;20404;-82
2021/05/02 02:32:28;;;;;;;9.20;3.63;;;;;;;18.50;59.73;94097.28;2970087;39;20059;-83
2021/05/02 02:34:29;;;;;;;6.55;2.80;;;;;;;18.56;59.27;94091.09;2973332;40;20079;-81
2021/05/02 02:36:32;;;;;;;10.95;3.05;;;;;;;18.63;59.18;94097.13;2970468;39;20163;-82
2021/05/02 02:38:34;;;;;;;8.25;3.67;;;;;;;18.65;59.18;94095.06;2969157;39;20148;-83
2021/05/02 02:40:37;;;;;;;9.23;3.22;;;;;;;18.70;58.93;94097.06;2975312;39;20096;-80
2021/05/02 02:42:40;;;;;;;6.18;2.75;;;;;;;18.67;58.85;94085.06;2976520;39;20084;-81
2021/05/02 02:44:48;;;;;;;9.98;3.38;;;;;;;18.67;59.52;94090.34;2975489;39;20447;-82
2021/05/02 02:46:53;;;;;;;9.13;2.45;;;;;;;18.70;59.00;94102.34;2975681;39;20067;-83
2021/05/02 02:48:56;;;;;;;9.52;2.70;;;;;;;18.72;59.00;94108.25;2969963;39;20052;-82
2021/05/02 02:51:02;;;;;;;7.40;3.08;;;;;;;18.69;58.78;94109.50;2976426;39;20075;-82
2021/05/02 02:53:05;;;;;;;9.65;2.92;;;;;;;18.72;59.09;94102.94;2973446;39;20455;-83
2021/05/02 02:55:12;;;;;;;8.73;2.93;;;;;;;18.61;59.36;94115.91;2985142;39;20435;-81
2021/05/02 02:57:20;;;;;;;6.70;2.70;;;;;;;18.61;59.36;94120.44;2974026;39;20064;-81
2021/05/02 02:59:31;;;;;;;7.38;2.40;;;;;;;18.57;59.86;94113.94;2967254;40;20045;-81
2021/05/02 03:01:32;;;;;;;8.82;3.08;;;;;;;18.61;59.29;94123.06;2971147;39;20048;-83
2021/05/02 03:03:42;;;;;;;6.57;2.95;;;;;;;18.65;59.23;94126.91;2974422;39;20060;-82
2021/05/02 03:05:45;;;;;;;8.90;3.05;;;;;;;18.66;59.52;94119.75;2969163;40;20071;-82
2021/05/02 03:07:47;;;;;;;10.02;2.85;;;;;;;18.65;59.56;94118.94;2965165;40;20091;-81
2021/05/02 03:09:49;;;;;;;8.00;2.78;;;;;;;18.68;59.28;94118.50;2972383;40;20051;-82
2021/05/02 03:11:50;;;;;;;6.70;2.20;;;;;;;18.69;59.33;94135.22;2972835;39;20131;-86
2021/05/02 03:13:53;;;;;;;12.18;2.97;;;;;;;18.65;59.64;94118.94;2977986;39;20066;-86
2021/05/02 03:15:56;;;;;;;11.18;2.88;;;;;;;18.56;59.65;94125.56;2971349;39;20056;-82
2021/05/02 03:18:06;;;;;;;8.00;2.47;;;;;;;18.56;59.82;94130.88;2973835;40;20091;-83
2021/05/02 03:20:17;;;;;;;8.93;2.60;;;;;;;18.58;59.54;94120.84;2974545;39;20060;-82
2021/05/02 03:22:30;;;;;;;7.32;3.10;;;;;;;18.57;59.60;94114.75;2969072;39;20067;-84
2021/05/02 03:24:33;;;;;;;11.85;3.45;;;;;;;18.58;59.76;94115.53;2978357;39;20061;-81
2021/05/02 03:26:35;;;;;;;7.43;2.92;;;;;;;18.58;59.71;94120.84;2975314;39;20062;-82
2021/05/02 03:28:39;;;;;;;8.98;3.22;;;;;;;18.44;60.63;94114.09;2974322;39;20055;-70
2021/05/02 03:30:42;;;;;;;10.52;3.03;;;;;;;18.13;61.03;94115.84;2969690;39;20080;-71
2021/05/02 03:32:47;;;;;;;10.13;3.28;;;;;;;18.16;61.08;94123.38;2983296;39;20066;-83
2021/05/02 03:34:49;;;;;;;10.68;3.45;;;;;;;18.16;61.54;94110.13;2976328;39;20140;-81
2021/05/02 03:36:52;;;;;;;9.63;3.42;;;;;;;17.74;62.65;94131.06;2976339;39;20102;-81
2021/05/02 03:38:53;;;;;;;12.63;3.63;;;;;;;17.85;62.36;94134.88;2964278;40;20067;-84
2021/05/02 03:40:55;;;;;;;8.55;3.13;;;;;;;17.70;62.92;94095.44;2976352;39;20089;-80
2021/05/02 03:42:58;;;;;;;10.35;3.25;;;;;;;17.83;62.75;94123.69;2972976;39;20110;-82
2021/05/02 03:44:59;;;;;;;9.73;3.08;;;;;;;17.98;61.99;94106.44;2972950;39;20052;-81
2021/05/02 03:47:01;;;;;;;9.77;4.07;;;;;;;18.06;62.07;94125.72;2972071;39;20052;-82
2021/05/02 03:49:05;;;;;;;10.38;3.65;;;;;;;18.14;61.61;94117.47;2973932;39;20072;-84
2021/05/02 03:51:06;;;;;;;10.68;3.20;;;;;;;17.96;62.20;94127.03;2969936;40;20431;-70
2021/05/02 03:53:07;;;;;;;11.68;2.75;;;;;;;17.95;62.20;94133.34;2974586;39;20044;-69
2021/05/02 03:55:09;;;;;;;8.85;2.80;;;;;;;18.06;61.89;94138.97;2973502;39;20064;-71
2021/05/02 03:57:10;;;;;;;8.73;3.10;;;;;;;18.13;61.88;94131.75;2974983;39;20472;-70
2021/05/02 03:59:23;;;;;;;9.45;2.95;;;;;;;18.00;62.19;94122.91;2974781;39;20084;-69
2021/05/02 04:01:25;;;;;;;7.60;2.70;;;;;;;18.01;61.98;94113.94;2971324;39;20123;-70
2021/05/02 04:03:26;;;;;;;12.57;2.95;;;;;;;18.01;61.80;94123.72;2972015;39;20048;-70
2021/05/02 04:05:27;;;;;;;11.38;2.97;;;;;;;17.93;62.29;94131.94;2970255;39;20072;-71
2021/05/02 04:07:29;;;;;;;13.68;3.13;;;;;;;17.99;61.79;94137.19;2972662;40;20416;-83
2021/05/02 04:09:30;;;;;;;12.57;3.10;;;;;;;17.88;62.24;94132.59;2975399;39;20400;-83
2021/05/02 04:11:32;;;;;;;11.90;3.20;;;;;;;17.99;61.92;94131.88;2971836;39;20413;-82
2021/05/02 04:13:33;;;;;;;12.77;3.20;;;;;;;18.03;61.70;94134.91;2973312;40;20215;-82
2021/05/02 04:15:34;;;;;;;17.40;3.80;;;;;;;18.12;61.41;94135.44;2977246;39;20063;-83
2021/05/02 04:17:35;;;;;;;14.60;3.63;;;;;;;17.73;62.59;94116.22;2981466;39;20063;-81
2021/05/02 04:19:41;;;;;;;12.48;3.88;;;;;;;17.76;62.72;94115.75;2973857;40;20060;-81
2021/05/02 04:21:43;;;;;;;11.60;3.53;;;;;;;17.76;62.55;94118.41;2971771;39;20127;-82
2021/05/02 04:23:44;;;;;;;9.90;3.83;;;;;;;17.83;62.11;94121.84;2976499;39;20060;-81
2021/05/02 04:25:45;;;;;;;13.27;3.20;;;;;;;18.03;61.81;94116.38;2974689;39;20071;-83
2021/05/02 04:27:46;;;;;;;10.50;3.63;;;;;;;18.24;61.33;94117.78;2977537;39;20100;-82
2021/05/02 04:29:47;;;;;;;8.52;3.05;;;;;;;18.45;60.36;94118.38;2981048;39;20538;-83
2021/05/02 04:31:50;;;;;;;10.60;3.65;;;;;;;18.58;59.43;94123.50;2977528;39;20064;-81
2021/05/02 04:33:51;;;;;;;9.13;3.28;;;;;;;18.69;59.57;94116.63;2971912;40;20084;-84
2021/05/02 04:35:52;;;;;;;7.63;3.22;;;;;;;18.83;58.98;94126.09;2977267;39;20059;-83
2021/05/02 04:37:53;;;;;;;11.40;3.17;;;;;;;18.84;58.85;94117.09;2975968;39;20068;-80
2021/05/02 04:39:54;;;;;;;7.40;2.90;;;;;;;18.75;59.14;94136.97;2977174;39;20125;-81
2021/05/02 04:41:56;;;;;;;11.38;3.40;;;;;;;18.75;59.27;94123.72;2974054;40;20052;-84
2021/05/02 04:43:58;;;;;;;11.55;3.00;;;;;;;18.89;58.55;94108.47;2971336;39;20048;-84
2021/05/02 04:45:59;;;;;;;9.52;3.40;;;;;;;18.97;58.41;94114.28;2968733;40;20340;-83
2021/05/02 04:48:00;;;;;;;7.07;2.55;;;;;;;19.13;57.56;94127.94;2968283;40;20144;-83
2021/05/02 04:50:03;;;;;;;11.68;2.60;;;;;;;19.26;57.16;94129.59;2972237;39;20520;-83
2021/05/02 04:52:04;;;;;;;7.05;2.75;;;;;;;19.40;56.82;94137.16;2977439;39;20067;-83
2021/05/02 04:54:07;;;;;;;7.20;3.05;;;;;;;19.49;56.41;94127.00;2973462;39;20064;-82
2021/05/02 04:56:09;;;;;;;9.75;3.08;;;;;;;19.26;56.92;94124.28;2970658;40;20068;-82
2021/05/02 04:58:10;;;;;;;12.00;3.72;;;;;;;19.38;56.89;94131.25;2977319;39;20057;-82
2021/05/02 05:00:12;;;;;;;11.70;2.80;;;;;;;19.54;56.34;94127.13;2973707;39;20051;-70
2021/05/02 05:02:13;;;;;;;8.80;3.28;;;;;;;19.44;56.24;94118.91;2972378;39;20075;-69
2021/05/02 05:04:14;;;;;;;10.82;3.55;;;;;;;19.51;55.95;94111.66;2975976;39;20062;-70
2021/05/02 05:06:16;;;;;;;8.85;3.28;;;;;;;19.61;55.55;94109.22;2972837;39;20063;-70
2021/05/02 05:08:17;;;;;;;7.28;2.92;;;;;;;19.73;54.80;94111.94;2970979;39;20078;-71
2021/05/02 05:10:18;;;;;;;11.60;3.03;;;;;;;19.73;54.77;94108.47;2975294;39;20084;-71
2021/05/02 05:12:20;;;;;;;10.07;3.10;;;;;;;19.59;54.84;94107.84;2972590;39;20087;-83
2021/05/02 05:14:21;;;;;;;8.48;3.42;;;;;;;19.26;56.35;94111.81;2974397;39;20065;-84
2021/05/02 05:16:22;;;;;;;8.60;3.28;;;;;;;19.17;56.56;94100.72;2980708;39;20424;-82
2021/05/02 05:18:24;;;;;;;12.52;3.90;;;;;;;19.29;56.16;94106.03;2980102;39;20068;-82
2021/05/02 05:20:26;;;;;;;12.07;3.70;;;;;;;19.46;56.09;94111.50;2975557;39;20048;-82
2021/05/02 05:22:27;;;;;;;9.90;3.58;;;;;;;19.57;55.16;94112.56;2979296;39;20100;-83
2021/05/02 05:24:28;;;;;;;8.98;2.60;;;;;;;19.72;55.34;94118.28;2971271;40;20118;-83
2021/05/02 05:26:30;;;;;;;9.18;3.05;;;;;;;19.83;54.64;94112.19;2976354;39;20111;-82
2021/05/02 05:28:31;;;;;;;12.07;3.45;;;;;;;20.00;54.45;94122.09;2979595;39;20040;-82
2021/05/02 05:30:33;;;;;;;7.68;3.40;;;;;;;20.11;53.92;94120.47;2977621;39;20080;-83
2021/05/02 05:32:34;;;;;;;7.80;3.72;;;;;;;20.18;53.41;94131.81;2976644;39;20083;-84
2021/05/02 05:34:36;;;;;;;9.32;2.97;;;;;;;20.23;53.42;94142.56;2977393;39;20064;-83
2021/05/02 05:36:37;;;;;;;8.13;2.70;;;;;;;20.34;53.16;94163.03;2974773;39;20093;-82
2021/05/02 05:38:38;;;;;;;8.82;2.92;;;;;;;20.48;52.72;94146.81;2969762;40;20056;-82
2021/05/02 05:40:40;;;;;;;9.90;3.10;;;;;;;20.58;52.25;94139.06;2976391;39;20081;-83
2021/05/02 05:42:41;;;;;;;9.65;3.65;;;;;;;20.63;52.00;94147.19;2975931;39;20047;-82
2021/05/02 05:44:43;;;;;;;10.00;3.42;;;;;;;20.74;51.54;94127.72;2977575;39;20056;-81
2021/05/02 05:46:44;;;;;;;12.32;5.25;;;;;;;20.94;51.07;94126.50;2977099;39;20132;-85
2021/05/02 05:48:46;;;;;;;11.60;3.00;;;;;;;21.11;50.61;94129.22;2975238;39;20105;-83
2021/05/02 05:50:48;;;;;;;10.25;3.15;;;;;;;21.24;50.45;94135.03;2976782;39;20051;-84
2021/05/02 05:52:51;;;;;;;10.35;4.30;;;;;;;21.40;49.85;94127.31;2974831;39;20343;-83
2021/05/02 05:54:52;;;;;;;7.63;3.27;;;;;;;21.11;49.44;94130.00;2973763;39;20056;-82
2021/05/02 05:56:54;;;;;;;8.73;3.20;;;;;;;21.06;50.12;94127.25;2971144;39;20344;-84
2021/05/02 05:58:55;;;;;;;16.27;3.85;;;;;;;20.73;50.38;94131.41;2969470;40;20137;-81
2021/05/02 06:00:56;;;;;;;8.80;4.28;;;;;;;20.68;50.21;94119.88;2974257;39;20088;-85
2021/05/02 06:02:58;;;;;;;9.07;3.28;;;;;;;20.39;51.46;94115.28;2979896;39;20187;-82
2021/05/02 06:04:59;;;;;;;8.43;3.50;;;;;;;20.32;51.26;94111.91;2977064;39;20132;-83
2021/05/02 06:07:01;;;;;;;11.18;3.10;;;;;;;20.46;51.10;94121.25;2978108;39;20077;-84
2021/05/02 06:09:04;;;;;;;8.05;2.72;;;;;;;20.52;51.65;94121.34;2976089;39;20328;-83
2021/05/02 06:11:05;;;;;;;;;;;;;;;20.49;51.19;94116.50;2973817;40;20084;-83
2021/05/02 06:13:07;;;;;;;11.85;3.35;;;;;;;20.20;51.13;94121.78;2976553;39;19969;-83
2021/05/02 06:15:13;;;;;;;6.88;2.40;;;;;;;20.44;50.87;94126.00;2977290;39;20048;-83
2021/05/02 06:17:14;;;;;;;10.63;3.08;;;;;;;20.68;50.76;94133.16;2973339;39;20040;-82
2021/05/02 06:19:17;;;;;;;14.27;3.58;;;;;;;20.77;49.57;94129.88;2977652;39;20152;-83
2021/05/02 06:21:19;;;;;;;10.65;2.97;;;;;;;20.73;49.69;94125.28;2982962;39;20083;-83
2021/05/02 06:23:21;;;;;;;12.30;3.65;;;;;;;20.76;49.99;94133.59;2972185;39;20146;-83
2021/05/02 06:25:22;;;;;;;9.68;3.00;;;;;;;20.90;49.89;94125.34;2977045;39;20373;-84
2021/05/02 06:27:24;;;;;;;10.77;4.28;;;;;;;20.93;49.44;94116.88;2978905;39;20047;-81
2021/05/02 06:29:25;;;;;;;14.38;3.40;;;;;;;21.08;49.33;94114.50;2974876;39;20290;-83
2021/05/02 06:31:27;;;;;;;10.85;4.22;;;;;;;21.04;48.62;94114.19;2975866;39;20305;-83
2021/05/02 06:33:28;;;;;;;16.63;4.13;;;;;;;20.92;48.78;94121.41;2970052;39;20059;-81
2021/05/02 06:35:30;;;;;;;6.55;2.85;;;;;;;20.96;48.91;94127.88;2977163;39;20062;-82
2021/05/02 06:37:31;;;;;;;9.65;3.58;;;;;;;20.97;48.64;94123.34;2975718;39;20067;-82
2021/05/02 06:39:32;;;;;;;10.50;3.13;;;;;;;20.95;49.19;94125.44;2971967;39;20055;-83
2021/05/02 06:41:34;;;;;;;13.68;3.85;;;;;;;21.14;48.72;94129.53;2973916;39;20185;-83
2021/05/02 06:43:36;;;;;;;8.95;3.60;;;;;;;21.37;48.45;94131.28;2973587;39;20056;-84
2021/05/02 06:45:37;;;;;;;13.35;4.22;;;;;;;21.25;48.26;94125.19;2975749;39;20082;-84
2021/05/02 06:47:39;;;;;;;8.20;3.40;;;;;;;21.36;48.30;94126.16;2969562;39;20036;-83
2021/05/02 06:49:40;;;;;;;6.55;3.10;;;;;;;21.13;48.62;94127.91;2973847;39;20051;-81
2021/05/02 06:51:41;;;;;;;7.72;3.53;;;;;;;21.15;48.45;94119.69;2969653;39;20428;-83
2021/05/02 06:53:42;;;;;;;9.23;3.10;;;;;;;21.25;48.57;94118.03;2972265;39;20090;-83
2021/05/02 06:55:44;;;;;;;10.43;2.75;;;;;;;21.21;47.98;94108.88;2976793;39;20059;-84
2021/05/02 06:57:47;;;;;;;6.43;2.55;;;;;;;21.41;45.02;94102.31;2972378;39;20141;-84
2021/05/02 06:59:48;;;;;;;13.55;3.83;;;;;;;21.62;46.13;94098.94;2974795;39;20114;-82
2021/05/02 07:01:49;;;;;;;6.15;2.50;;;;;;;21.87;46.03;94100.38;2971375;40;20152;-80
2021/05/02 07:03:51;;;;;;;10.07;2.58;;;;;;;21.79;46.48;94114.13;2974829;39;20060;-83
2021/05/02 07:06:05;;;;;;;11.07;3.30;;;;;;;21.84;47.10;94111.56;2976570;39;20092;-81
2021/05/02 07:08:06;;;;;;;9.05;3.17;;;;;;;21.95;46.87;94118.66;2971135;39;20309;-83
2021/05/02 07:10:08;;;;;;;10.57;3.15;;;;;;;22.06;46.53;94114.28;2986492;39;20316;-84
2021/05/02 07:12:09;;;;;;;9.70;3.17;;;;;;;22.22;46.04;94102.81;2975224;39;20087;-83
2021/05/02 07:14:11;;;;;;;8.40;2.83;;;;;;;22.30;45.05;94104.22;2974444;39;20053;-83
2021/05/02 07:16:13;;;;;;;9.75;3.42;;;;;;;22.45;45.19;94095.63;2970254;39;20385;-71
2021/05/02 07:18:14;;;;;;;13.15;3.22;;;;;;;22.56;46.12;94115.25;2967316;39;20284;-70
2021/05/02 07:20:17;;;;;;;11.50;3.20;;;;;;;22.57;45.54;94108.88;2968689;40;20149;-70
2021/05/02 07:22:19;;;;;;;10.15;2.85;;;;;;;22.46;45.39;94126.59;2972821;39;20052;-70
2021/05/02 07:24:20;;;;;;;10.15;3.13;;;;;;;22.63;45.50;94129.22;2968919;39;20061;-72
2021/05/02 07:26:22;;;;;;;10.73;3.40;;;;;;;22.72;45.10;94127.75;2983052;39;20060;-71
2021/05/02 07:28:24;;;;;;;15.68;3.55;;;;;;;22.85;44.23;94122.00;2973482;39;20378;-84
2021/05/02 07:30:25;;;;;;;7.07;3.05;;;;;;;22.89;44.05;94133.00;2970493;39;20064;-83
2021/05/02 07:32:27;;;;;;;10.35;3.03;;;;;;;22.89;43.85;94133.00;2978723;39;20044;-83
2021/05/02 07:34:28;;;;;;;13.75;4.80;;;;;;;22.94;44.65;94141.06;2971729;39;20136;-83
2021/05/02 07:36:29;;;;;;;12.32;3.65;;;;;;;22.93;44.95;94143.97;2980806;39;20059;-82
2021/05/02 07:38:31;;;;;;;8.23;2.80;;;;;;;23.03;45.42;94158.28;2977734;39;20095;-82
2021/05/02 07:40:33;;;;;;;14.25;3.40;;;;;;;23.00;45.23;94156.13;2973166;39;20152;-82
2021/05/02 07:42:34;;;;;;;8.50;3.63;;;;;;;23.08;45.65;94168.22;2976921;39;20060;-83
2021/05/02 07:44:36;;;;;;;12.57;3.40;;;;;;;22.95;45.14;94164.06;2974132;39;20048;-83
2021/05/02 07:46:38;;;;;;;12.65;3.20;;;;;;;23.04;44.92;94162.59;2974043;39;20101;-82
2021/05/02 07:48:39;;;;;;;10.10;4.55;;;;;;;22.99;45.53;94164.34;2972546;40;20478;-84
2021/05/02 07:50:41;;;;;;;8.65;3.35;;;;;;;23.05;45.27;94174.88;2969722;39;20064;-81
2021/05/02 07:52:42;;;;;;;12.63;3.70;;;;;;;23.13;45.34;94170.19;2972144;39;20304;-82
2021/05/02 07:54:44;;;;;;;9.25;3.40;;;;;;;23.31;42.77;94170.63;2972428;39;20057;-83
2021/05/02 07:56:45;;;;;;;9.52;3.20;;;;;;;23.36;40.75;94161.88;2970590;39;20056;-84
2021/05/02 07:58:47;;;;;;;12.73;3.08;;;;;;;23.51;40.43;94166.53;2974181;39;20055;-83
2021/05/02 08:00:48;;;;;;;11.75;2.80;;;;;;;23.66;39.36;94174.75;2964237;40;20060;-84
2021/05/02 08:02:49;;;;;;;8.50;2.67;;;;;;;23.77;38.42;94166.81;2974219;39;20064;-82
2021/05/02 08:04:50;;;;;;;10.88;3.20;;;;;;;23.88;37.73;94165.88;2976378;39;20092;-83
2021/05/02 08:06:51;;;;;;;12.40;2.92;;;;;;;23.97;38.08;94167.00;2977718;39;20361;-83
2021/05/02 08:08:53;;;;;;;10.25;2.80;;;;;;;24.01;38.25;94165.44;2975586;39;20073;-82
2021/05/02 08:10:55;;;;;;;10.05;2.80;;;;;;;24.20;38.00;94162.34;2975037;39;20048;-82
2021/05/02 08:12:56;;;;;;;6.53;2.53;;;;;;;24.30;37.85;94167.78;2976445;39;20051;-82
2021/05/02 08:14:58;;;;;;;11.32;3.17;;;;;;;24.36;36.80;94172.09;2974708;39;20060;-82
2021/05/02 08:16:59;;;;;;;14.75;3.90;;;;;;;24.48;36.77;94170.06;2976712;39;20153;-83
2021/05/02 08:19:03;;;;;;;8.45;3.53;;;;;;;24.59;36.72;94170.16;2979648;39;20048;-83
2021/05/02 08:21:07;;;;;;;8.88;2.35;;;;;;;24.61;36.54;94171.50;2977120;39;20141;-82
2021/05/02 08:23:09;;;;;;;11.70;3.03;;;;;;;24.68;36.26;94174.72;2980499;39;20056;-82
2021/05/02 08:25:10;;;;;;;10.63;2.78;;;;;;;24.70;36.46;94171.81;2983204;39;20114;-85
2021/05/02 08:27:12;;;;;;;13.82;2.60;;;;;;;24.80;36.07;94181.75;2981563;39;20085;-84
2021/05/02 08:29:13;;;;;;;7.95;2.30;;;;;;;24.84;34.92;94180.16;2981752;40;20068;-82
2021/05/02 08:31:14;;;;;;;10.13;3.55;;;;;;;24.77;36.07;94184.97;2983869;39;20087;-83
2021/05/02 08:33:16;;;;;;;7.88;2.72;;;;;;;24.82;35.22;94180.41;2982315;39;20156;-82
2021/05/02 08:35:17;;;;;;;8.32;3.17;;;;;;;24.87;35.77;94175.09;2981044;39;20068;-85
2021/05/02 08:37:19;;;;;;;11.10;2.92;;;;;;;24.97;35.59;94168.16;2976636;39;20088;-83
2021/05/02 08:39:20;;;;;;;7.60;2.83;;;;;;;25.19;35.36;94176.00;2977405;39;20197;-83
2021/05/02 08:41:22;;;;;;;13.38;3.30;;;;;;;25.26;34.95;94169.38;2977913;39;20060;-83
2021/05/02 08:43:32;;;;;;;10.48;2.92;;;;;;;25.36;35.31;94165.94;2968309;40;20057;-71
2021/05/02 08:45:35;;;;;;;12.15;2.75;;;;;;;25.34;34.84;94171.56;2966429;40;20059;-73
2021/05/02 08:47:37;;;;;;;11.18;3.53;;;;;;;25.42;35.05;94177.47;2974614;39;20058;-70
2021/05/02 08:49:40;;;;;;;10.35;2.42;;;;;;;25.43;33.53;94173.72;2973277;39;20055;-71
2021/05/02 08:51:42;;;;;;;;;;;;;;;25.29;34.43;94170.72;2976463;39;20096;-70
2021/05/02 08:53:43;;;;;;;8.98;2.50;;;;;;;25.26;34.32;94163.22;2972011;39;19965;-73
2021/05/02 08:55:46;;;;;;;13.73;2.72;;;;;;;25.36;34.48;94173.97;2972742;39;20068;-72
2021/05/02 08:57:48;;;;;;;;;;;;;;;25.37;34.20;94175.59;2975334;39;20084;-71
2021/05/02 08:59:49;;;;;;;10.63;3.15;;;;;;;25.28;34.07;94171.81;2974471;39;19971;-71
2021/05/02 09:01:55;;;;;;;12.18;2.75;;;;;;;25.29;34.08;94170.72;2966649;40;20133;-70
2021/05/02 09:04:01;;;;;;;11.07;3.20;;;;;;;25.45;33.50;94150.13;2974768;39;20054;-72
2021/05/02 09:06:13;;;;;;;11.15;2.58;;;;;;;25.52;33.43;94148.00;2973956;39;20044;-71
2021/05/02 09:08:35;;;;;;;7.50;2.20;;;;;;;25.72;33.35;94150.69;2972800;39;20060;-71
2021/05/02 09:10:37;;;;;;;9.13;2.30;;;;;;;25.75;33.25;94158.22;2974001;39;20213;-70
2021/05/02 09:12:40;;;;;;;15.43;2.90;;;;;;;25.75;33.28;94146.69;2972855;39;20047;-72
2021/05/02 09:14:41;;;;;;;11.55;2.50;;;;;;;25.78;33.31;94145.34;2974576;39;20100;-72
2021/05/02 09:16:50;;;;;;;13.43;3.15;;;;;;;25.92;33.23;94139.22;2972858;39;20056;-71
2021/05/02 09:18:59;;;;;;;13.20;2.83;;;;;;;26.08;32.62;94142.69;2975569;39;20055;-71
2021/05/02 09:21:00;;;;;;;9.50;2.50;;;;;;;26.06;32.74;94134.09;2966028;40;20461;-71
2021/05/02 09:23:01;;;;;;;8.65;2.67;;;;;;;26.09;32.24;94122.00;2972938;39;20137;-72
2021/05/02 09:25:14;;;;;;;12.85;3.00;;;;;;;26.04;32.67;94120.13;2968871;40;20052;-71
2021/05/02 09:27:18;;;;;;;14.07;3.63;;;;;;;26.25;32.29;94130.88;2973350;39;20080;-71
2021/05/02 09:29:21;;;;;;;6.18;2.63;;;;;;;26.30;31.77;94128.97;2972780;39;20287;-71
2021/05/02 09:31:28;;;;;;;12.43;2.78;;;;;;;26.42;31.56;94117.94;2972693;39;20092;-70
2021/05/02 09:33:36;;;;;;;12.70;2.75;;;;;;;26.27;31.66;94118.78;2969349;39;20051;-71
2021/05/02 09:35:37;;;;;;;11.60;2.80;;;;;;;26.42;31.47;94117.16;2975687;39;20052;-71